Time;durP1;ratioP1;P1;durP2;ratioP2;P2;SDS_P1;SDS_P2;PMS_P1;PMS_P2;Temp;Humidity;BMP_temperature;BMP_pressure;BME280_temperature;BME280_humidity;BME280_pressure;Samples;Min_cycle;Max_cycle;Signal;HPM_P1;HPM_P2
2022/09/09 00:01:30;;;;;;;21.52;11.98;;;16.90;99.90;;;;;;5068754;28;20025;-53
2022/09/09 00:04:29;;;;;;;19.45;13.50;;;16.90;99.90;;;;;;5067159;28;20027;-53
2022/09/09 00:07:16;;;;;;;20.70;14.90;;;16.90;99.90;;;;;;5066700;28;20028;-53
2022/09/09 00:09:52;;;;;;;21.30;14.45;;;16.90;99.90;;;;;;5067144;28;20687;-54
2022/09/09 00:12:43;;;;;;;28.45;18.25;;;16.90;99.90;;;;;;5066734;28;20029;-53
2022/09/09 00:15:14;;;;;;;26.65;18.27;;;16.90;99.90;;;;;;5049372;28;20036;-53
2022/09/09 00:17:47;;;;;;;29.58;19.83;;;16.80;99.90;;;;;;5049807;28;20072;-53
2022/09/09 00:20:57;;;;;;;30.77;20.83;;;16.80;99.90;;;;;;5049596;28;20032;-53
2022/09/09 00:23:28;;;;;;;;;;;16.70;99.90;;;;;;5050102;28;20029;-54
2022/09/09 00:26:30;;;;;;;32.00;21.92;;;16.70;99.90;;;;;;5049601;28;20282;-53
2022/09/09 00:29:10;;;;;;;31.83;22.45;;;16.70;99.90;;;;;;5043554;28;20025;-53
2022/09/09 00:31:39;;;;;;;32.20;21.73;;;16.70;99.90;;;;;;5048509;28;20037;-53
2022/09/09 00:34:26;;;;;;;35.58;22.10;;;16.70;99.90;;;;;;5048649;28;20361;-53
2022/09/09 00:36:53;;;;;;;35.58;22.88;;;16.60;99.90;;;;;;5049028;28;20048;-52
2022/09/09 00:39:41;;;;;;;30.02;21.70;;;16.60;99.90;;;;;;5049074;28;20045;-53
2022/09/09 00:42:23;;;;;;;32.17;22.08;;;16.60;99.90;;;;;;5049319;28;20512;-54
2022/09/09 00:44:55;;;;;;;30.75;20.23;;;16.50;99.90;;;;;;5049398;28;20075;-53
2022/09/09 00:47:21;;;;;;;29.02;19.25;;;16.40;99.90;;;;;;5049804;28;20036;-53
2022/09/09 00:49:47;;;;;;;28.77;19.80;;;16.40;99.90;;;;;;5049055;28;20025;-53
2022/09/09 00:52:18;;;;;;;26.30;18.50;;;16.40;99.90;;;;;;5049394;28;20037;-53
2022/09/09 00:54:59;;;;;;;28.25;18.85;;;16.30;99.90;;;;;;5049277;28;20029;-53
2022/09/09 00:57:32;;;;;;;25.58;18.00;;;16.30;99.90;;;;;;5049052;28;20041;-53
2022/09/09 01:00:05;;;;;;;25.77;17.38;;;16.20;99.90;;;;;;5047943;28;20025;-53
2022/09/09 01:02:50;;;;;;;26.50;17.83;;;16.20;99.90;;;;;;5048498;28;20086;-54
2022/09/09 01:05:44;;;;;;;22.63;17.35;;;16.20;99.90;;;;;;5049500;28;20032;-53
2022/09/09 01:08:53;;;;;;;24.40;16.77;;;16.10;99.90;;;;;;5052304;28;20017;-53
2022/09/09 01:11:25;;;;;;;27.83;17.10;;;16.20;99.90;;;;;;5043591;28;20048;-54
2022/09/09 01:14:25;;;;;;;25.42;17.90;;;16.10;99.90;;;;;;5052417;28;20094;-53
2022/09/09 01:16:56;;;;;;;24.00;18.50;;;16.20;99.90;;;;;;5050466;28;20033;-53
2022/09/09 01:19:44;;;;;;;24.80;17.48;;;16.10;99.90;;;;;;5052302;28;20040;-53
2022/09/09 01:22:29;;;;;;;25.02;19.77;;;16.10;99.90;;;;;;5052162;28;20031;-53
2022/09/09 01:25:19;;;;;;;26.55;19.73;;;16.10;99.90;;;;;;5052068;28;20488;-53
2022/09/09 01:27:48;;;;;;;26.67;19.48;;;16.10;99.90;;;;;;5033904;28;20111;-53
2022/09/09 01:30:16;;;;;;;23.60;18.63;;;16.00;99.90;;;;;;5052641;28;20043;-54
2022/09/09 01:32:48;;;;;;;25.40;19.00;;;16.00;99.90;;;;;;5052629;28;20666;-53
2022/09/09 01:35:37;;;;;;;26.83;19.35;;;16.00;99.90;;;;;;5051993;28;20028;-53
2022/09/09 01:38:03;;;;;;;25.60;18.13;;;16.00;99.90;;;;;;5052011;28;20075;-53
2022/09/09 01:40:29;;;;;;;23.08;17.27;;;16.00;99.90;;;;;;5052677;28;20029;-54
2022/09/09 01:42:56;;;;;;;23.55;16.95;;;16.00;99.90;;;;;;5052762;28;20044;-53
2022/09/09 01:45:22;;;;;;;22.70;16.83;;;15.90;99.90;;;;;;5052567;28;20391;-53
2022/09/09 01:47:49;;;;;;;21.13;16.90;;;15.90;99.90;;;;;;5052064;28;20029;-54
2022/09/09 01:50:16;;;;;;;22.47;17.57;;;15.90;99.90;;;;;;5051586;28;20035;-53
2022/09/09 01:52:48;;;;;;;22.52;17.33;;;15.90;99.90;;;;;;5051726;28;20094;-53
2022/09/09 01:55:15;;;;;;;25.38;16.88;;;15.80;99.90;;;;;;5051832;28;20527;-54
2022/09/09 01:58:16;;;;;;;21.90;16.40;;;15.90;99.90;;;;;;5052467;28;20041;-53
2022/09/09 02:00:52;;;;;;;24.20;16.55;;;15.90;99.90;;;;;;5013147;28;20037;-53
2022/09/09 02:03:28;;;;;;;19.60;15.57;;;15.90;99.90;;;;;;5052254;28;20104;-53
2022/09/09 02:06:00;;;;;;;25.63;16.65;;;15.90;99.90;;;;;;5052184;28;20051;-54
2022/09/09 02:08:35;;;;;;;19.98;15.30;;;15.90;99.90;;;;;;5052356;28;20025;-53
2022/09/09 02:11:17;;;;;;;22.52;16.55;;;15.90;99.90;;;;;;5051832;28;20025;-53
2022/09/09 02:13:45;;;;;;;23.85;16.42;;;15.80;99.90;;;;;;5052295;28;20048;-53
2022/09/09 02:16:23;;;;;;;23.00;16.27;;;15.80;99.90;;;;;;5051284;28;20040;-54
2022/09/09 02:18:59;;;;;;;22.80;16.30;;;15.80;99.90;;;;;;5056306;28;20067;-53
2022/09/09 02:21:28;;;;;;;22.70;16.05;;;15.80;99.90;;;;;;5052694;28;20024;-53
2022/09/09 02:23:56;;;;;;;25.73;17.67;;;15.80;99.90;;;;;;5071455;28;20496;-53
2022/09/09 02:26:23;;;;;;;22.98;17.10;;;15.80;99.90;;;;;;5071701;28;20035;-53
2022/09/09 02:28:50;;;;;;;30.52;17.52;;;15.80;99.90;;;;;;5071994;28;20035;-54
2022/09/09 02:31:19;;;;;;;23.20;17.90;;;15.70;99.90;;;;;;5071635;28;20139;-53
2022/09/09 02:33:51;;;;;;;27.30;18.20;;;15.70;99.90;;;;;;5071765;28;20028;-53
2022/09/09 02:36:17;;;;;;;22.55;16.52;;;15.70;99.90;;;;;;5071742;28;20487;-53
2022/09/09 02:38:52;;;;;;;21.73;17.03;;;15.70;99.90;;;;;;5070932;28;20068;-53
2022/09/09 02:41:22;;;;;;;26.35;18.92;;;15.70;99.90;;;;;;5070563;28;20025;-51
2022/09/09 02:43:48;;;;;;;26.60;17.67;;;15.70;99.90;;;;;;5070760;28;20021;-53
2022/09/09 02:46:47;;;;;;;23.63;18.10;;;15.70;99.90;;;;;;5071020;28;20061;-53
2022/09/09 02:49:30;;;;;;;23.17;17.20;;;15.70;99.90;;;;;;5070987;28;20069;-53
2022/09/09 02:52:06;;;;;;;24.63;17.20;;;15.60;99.90;;;;;;5070371;28;20043;-53
2022/09/09 02:54:38;;;;;;;23.85;18.67;;;15.60;99.90;;;;;;5070812;28;20028;-53
2022/09/09 02:57:24;;;;;;;24.42;19.58;;;15.60;99.90;;;;;;5070432;28;20043;-53
2022/09/09 02:59:52;;;;;;;22.88;17.70;;;15.60;99.90;;;;;;5070189;28;20034;-53
2022/09/09 03:02:18;;;;;;;25.17;18.52;;;15.50;99.90;;;;;;5070410;28;20035;-53
2022/09/09 03:04:44;;;;;;;24.35;18.85;;;15.50;99.90;;;;;;5071558;28;20107;-53
2022/09/09 03:07:11;;;;;;;23.30;18.20;;;15.50;99.90;;;;;;5070941;28;20665;-53
2022/09/09 03:09:36;;;;;;;27.52;19.55;;;15.50;99.90;;;;;;5053052;28;20032;-53
2022/09/09 03:12:04;;;;;;;23.50;17.95;;;15.50;99.90;;;;;;5070839;28;20025;-53
2022/09/09 03:14:30;;;;;;;22.30;16.90;;;15.40;99.90;;;;;;5070135;28;20028;-53
2022/09/09 03:16:57;;;;;;;23.10;17.30;;;15.40;99.90;;;;;;5070011;28;20048;-52
2022/09/09 03:19:23;;;;;;;;;;;15.40;99.90;;;;;;5070539;28;20534;-53
2022/09/09 03:21:49;;;;;;;23.15;17.75;;;15.40;99.90;;;;;;5069756;28;19908;-53
2022/09/09 03:24:15;;;;;;;20.65;16.92;;;15.40;99.90;;;;;;5070664;28;20513;-54
2022/09/09 03:26:44;;;;;;;21.73;16.70;;;15.40;99.90;;;;;;5070686;28;20480;-53
2022/09/09 03:29:12;;;;;;;19.83;16.13;;;15.40;99.90;;;;;;5070771;28;20037;-53
2022/09/09 03:31:38;;;;;;;22.33;17.70;;;15.40;99.90;;;;;;5070306;28;20115;-53
2022/09/09 03:34:03;;;;;;;23.80;16.90;;;15.30;99.90;;;;;;5070265;28;20063;-53
2022/09/09 03:36:30;;;;;;;22.15;17.38;;;15.30;99.90;;;;;;5070340;28;20702;-53
2022/09/09 03:38:55;;;;;;;24.80;16.83;;;15.30;99.90;;;;;;5069908;28;20377;-53
2022/09/09 03:41:23;;;;;;;21.52;15.40;;;15.30;99.90;;;;;;5069556;28;20501;-53
2022/09/09 03:43:53;;;;;;;23.05;15.85;;;15.30;99.90;;;;;;5069458;28;20055;-53
2022/09/09 03:46:21;;;;;;;22.70;16.52;;;15.20;99.90;;;;;;5069703;28;20028;-53
2022/09/09 03:48:47;;;;;;;25.30;17.23;;;15.30;99.90;;;;;;5069642;28;20025;-53
2022/09/09 03:51:13;;;;;;;20.02;15.75;;;15.20;99.90;;;;;;5070321;28;20028;-52
2022/09/09 03:53:39;;;;;;;23.02;16.23;;;15.20;99.90;;;;;;5069910;28;20033;-53
2022/09/09 03:56:06;;;;;;;24.95;16.58;;;15.30;99.90;;;;;;5070446;28;20035;-53
2022/09/09 03:58:33;;;;;;;20.75;17.08;;;15.20;99.90;;;;;;5069973;28;20076;-53
2022/09/09 04:01:00;;;;;;;;;;;15.10;99.90;;;;;;5070423;28;20028;-53
2022/09/09 04:03:26;;;;;;;25.08;17.38;;;15.10;99.90;;;;;;5069695;28;19956;-53
2022/09/09 04:05:52;;;;;;;24.98;18.02;;;15.20;99.90;;;;;;5070175;28;20028;-53
2022/09/09 04:08:19;;;;;;;25.17;17.50;;;15.10;99.90;;;;;;5070154;28;20024;-52
2022/09/09 04:10:47;;;;;;;27.20;17.55;;;15.10;99.90;;;;;;5069722;28;20636;-53
2022/09/09 04:13:15;;;;;;;30.33;17.95;;;15.00;99.90;;;;;;5051456;28;20036;-53
2022/09/09 04:15:41;;;;;;;21.95;17.02;;;15.00;99.90;;;;;;5051105;28;20029;-53
2022/09/09 04:18:06;;;;;;;24.48;17.55;;;15.00;99.90;;;;;;5068996;28;20505;-53
2022/09/09 04:20:32;;;;;;;26.13;16.77;;;15.00;99.90;;;;;;5068763;28;20021;-53
2022/09/09 04:22:58;;;;;;;26.17;17.67;;;15.00;99.90;;;;;;5069086;28;20056;-52
2022/09/09 04:25:24;;;;;;;22.80;16.17;;;15.00;99.90;;;;;;5069956;28;20737;-53
2022/09/09 04:27:54;;;;;;;24.70;17.20;;;15.00;99.90;;;;;;5069019;28;20472;-53
2022/09/09 04:30:20;;;;;;;22.75;16.15;;;14.90;99.90;;;;;;5067147;28;20040;-53
2022/09/09 04:32:46;;;;;;;28.13;16.42;;;14.90;99.90;;;;;;5069186;28;20482;-53
2022/09/09 04:35:12;;;;;;;22.10;16.23;;;14.90;99.90;;;;;;5069398;28;20033;-53
2022/09/09 04:37:38;;;;;;;21.98;15.73;;;14.90;99.90;;;;;;5069466;28;20033;-53
2022/09/09 04:40:04;;;;;;;21.10;16.02;;;15.00;99.90;;;;;;5067507;28;20127;-53
2022/09/09 04:42:30;;;;;;;25.70;16.25;;;15.00;99.90;;;;;;5069800;28;20669;-53
2022/09/09 04:44:55;;;;;;;23.85;17.25;;;15.00;99.90;;;;;;5069422;28;20119;-53
2022/09/09 04:47:21;;;;;;;24.52;17.48;;;15.00;99.90;;;;;;5069526;28;20125;-52
2022/09/09 04:49:47;;;;;;;26.00;16.02;;;15.00;99.90;;;;;;5069323;28;20025;-53
2022/09/09 04:52:13;;;;;;;25.52;16.92;;;15.00;99.90;;;;;;5068054;28;20032;-52
2022/09/09 04:54:38;;;;;;;22.80;15.98;;;15.00;99.90;;;;;;5069263;28;20391;-52
2022/09/09 04:57:04;;;;;;;22.75;15.00;;;15.00;99.90;;;;;;5069406;28;20509;-53
2022/09/09 04:59:30;;;;;;;26.20;15.05;;;15.00;99.90;;;;;;5069397;28;20131;-53
2022/09/09 05:01:56;;;;;;;22.15;14.45;;;15.00;99.90;;;;;;5069007;28;20103;-53
2022/09/09 05:04:21;;;;;;;21.55;14.35;;;15.00;99.90;;;;;;5069222;28;20085;-53
2022/09/09 05:06:48;;;;;;;24.90;13.93;;;15.10;99.90;;;;;;5069328;28;20078;-52
2022/09/09 05:09:13;;;;;;;20.90;13.75;;;15.10;99.90;;;;;;5069361;28;20033;-53
2022/09/09 05:11:39;;;;;;;21.65;14.48;;;15.10;99.90;;;;;;5069189;28;20029;-52
2022/09/09 05:14:05;;;;;;;25.40;14.63;;;15.10;99.90;;;;;;5069357;28;20071;-53
2022/09/09 05:16:31;;;;;;;20.88;14.07;;;15.10;99.90;;;;;;5069098;28;20143;-53
2022/09/09 05:18:57;;;;;;;19.15;13.63;;;15.10;99.90;;;;;;5069467;28;20115;-53
2022/09/09 05:21:26;;;;;;;21.60;14.55;;;15.10;99.90;;;;;;5069039;28;20021;-53
2022/09/09 05:23:52;;;;;;;21.90;15.02;;;15.20;99.90;;;;;;5067664;28;20040;-53
2022/09/09 05:26:20;;;;;;;20.08;13.13;;;15.20;99.90;;;;;;5069290;28;20033;-52
2022/09/09 05:28:46;;;;;;;20.08;13.15;;;15.20;99.90;;;;;;5068388;28;20031;-53
2022/09/09 05:31:14;;;;;;;24.65;14.60;;;15.20;99.90;;;;;;5068620;28;20032;-52
2022/09/09 05:33:42;;;;;;;19.38;13.23;;;15.20;99.90;;;;;;5068117;28;20703;-53
2022/09/09 05:36:13;;;;;;;20.27;13.75;;;15.30;99.90;;;;;;5068630;28;20056;-52
2022/09/09 05:38:40;;;;;;;19.35;13.82;;;15.30;99.90;;;;;;5047785;28;20060;-53
2022/09/09 05:41:06;;;;;;;;;;;15.40;99.90;;;;;;5069246;28;20817;-53
2022/09/09 05:43:32;;;;;;;17.48;12.60;;;15.40;99.90;;;;;;5068456;28;19915;-53
2022/09/09 05:46:04;;;;;;;19.70;13.13;;;15.40;99.90;;;;;;5068153;28;20020;-52
2022/09/09 05:48:34;;;;;;;23.27;13.13;;;15.50;99.90;;;;;;5068489;28;20031;-52
2022/09/09 05:51:02;;;;;;;22.02;14.45;;;15.50;99.90;;;;;;5068029;28;20698;-53
2022/09/09 05:53:30;;;;;;;;;;;15.50;99.90;;;;;;5033101;28;20081;-52
2022/09/09 05:56:05;;;;;;;23.27;14.45;;;15.60;99.90;;;;;;5060583;28;20390;-52
2022/09/09 05:58:32;;;;;;;19.75;11.95;;;15.60;99.90;;;;;;5050988;28;20044;-52
2022/09/09 06:01:14;;;;;;;;;;;15.60;99.90;;;;;;5068823;28;20107;-53
2022/09/09 06:03:41;;;;;;;21.02;10.57;;;15.70;99.90;;;;;;5069655;28;20713;-53
2022/09/09 06:06:09;;;;;;;19.38;11.95;;;15.70;99.90;;;;;;5070887;28;20032;-54
2022/09/09 06:08:39;;;;;;;16.95;11.02;;;15.80;99.90;;;;;;5070783;28;20052;-54
2022/09/09 06:11:10;;;;;;;15.48;11.63;;;15.80;99.90;;;;;;5069204;28;20021;-53
2022/09/09 06:13:39;;;;;;;18.83;12.27;;;15.90;99.90;;;;;;5070540;28;20066;-54
2022/09/09 06:16:07;;;;;;;25.67;12.10;;;15.90;99.90;;;;;;5071088;28;20048;-54
2022/09/09 06:18:33;;;;;;;15.35;10.63;;;16.00;99.90;;;;;;5070876;28;20067;-54
2022/09/09 06:21:04;;;;;;;15.70;10.73;;;16.00;99.90;;;;;;5070450;28;20020;-53
2022/09/09 06:23:31;;;;;;;16.73;10.13;;;16.20;99.90;;;;;;5070124;28;20131;-54
2022/09/09 06:26:13;;;;;;;14.00;9.85;;;16.20;99.90;;;;;;5070692;28;20021;-54
2022/09/09 06:28:39;;;;;;;16.27;9.93;;;16.20;99.90;;;;;;5071532;28;20029;-53
2022/09/09 06:31:08;;;;;;;14.98;10.13;;;16.30;99.90;;;;;;5071839;28;20369;-53
2022/09/09 06:33:39;;;;;;;14.48;9.68;;;16.30;99.90;;;;;;5071339;28;20036;-53
2022/09/09 06:36:05;;;;;;;11.80;8.15;;;16.40;99.90;;;;;;5071600;28;20055;-54
2022/09/09 06:38:31;;;;;;;12.15;8.05;;;16.40;99.90;;;;;;5071568;28;20057;-54
2022/09/09 06:40:59;;;;;;;12.00;8.75;;;16.50;99.90;;;;;;5037243;28;20021;-53
2022/09/09 06:43:28;;;;;;;14.88;9.43;;;16.60;99.90;;;;;;5071505;28;20593;-54
2022/09/09 06:45:55;;;;;;;15.60;8.18;;;16.70;99.90;;;;;;5071281;28;20112;-54
2022/09/09 06:48:21;;;;;;;12.98;7.13;;;16.70;99.90;;;;;;5071791;28;20040;-54
2022/09/09 06:50:47;;;;;;;13.15;7.47;;;16.80;99.90;;;;;;5070913;28;20472;-54
2022/09/09 06:53:18;;;;;;;11.23;7.40;;;16.80;99.90;;;;;;5071269;28;20108;-54
2022/09/09 06:55:45;;;;;;;10.65;7.45;;;16.90;99.90;;;;;;5071323;28;20099;-54
2022/09/09 06:58:11;;;;;;;11.93;7.57;;;17.00;99.90;;;;;;5071551;28;20040;-55
2022/09/09 07:00:39;;;;;;;9.23;6.65;;;17.00;99.90;;;;;;5070823;28;20396;-54
2022/09/09 07:03:06;;;;;;;10.68;6.93;;;17.00;99.90;;;;;;5070715;28;20082;-54
2022/09/09 07:05:32;;;;;;;10.73;6.47;;;17.10;99.90;;;;;;5071159;28;20112;-55
2022/09/09 07:07:58;;;;;;;11.65;6.32;;;17.10;99.90;;;;;;5071364;28;20029;-54
2022/09/09 07:10:24;;;;;;;12.27;6.57;;;17.20;99.90;;;;;;5071195;28;20021;-54
2022/09/09 07:12:53;;;;;;;9.73;5.72;;;17.20;99.90;;;;;;5070744;28;20411;-55
2022/09/09 07:15:19;;;;;;;10.65;5.38;;;17.30;99.90;;;;;;5052720;28;20055;-53
2022/09/09 07:17:46;;;;;;;11.10;4.93;;;17.40;99.90;;;;;;5070834;28;20152;-53
2022/09/09 07:20:12;;;;;;;7.17;4.70;;;17.50;99.90;;;;;;5070773;28;20023;-54
2022/09/09 07:22:38;;;;;;;8.77;4.82;;;17.50;99.90;;;;;;5070806;28;20277;-54
2022/09/09 07:25:04;;;;;;;11.45;4.47;;;17.50;99.90;;;;;;5053094;28;20384;-54
2022/09/09 07:27:30;;;;;;;9.50;4.25;;;17.50;99.90;;;;;;5069834;28;20025;-54
2022/09/09 07:29:55;;;;;;;6.55;4.07;;;17.60;99.90;;;;;;5070454;28;20058;-54
2022/09/09 07:32:21;;;;;;;5.65;3.40;;;17.60;99.90;;;;;;5070773;28;20096;-53
2022/09/09 07:34:47;;;;;;;10.63;4.32;;;17.70;99.90;;;;;;5070805;28;20527;-53
2022/09/09 07:37:13;;;;;;;10.30;5.38;;;17.80;99.90;;;;;;5052395;28;20055;-53
2022/09/09 07:39:39;;;;;;;9.98;5.63;;;17.90;99.90;;;;;;5051965;28;20131;-53
2022/09/09 07:44:46;;;;;;;7.97;4.30;;;18.00;99.90;;;;;;5032918;28;20131;-92
2022/09/09 07:47:24;;;;;;;9.55;4.43;;;18.10;99.90;;;;;;5019957;28;20055;-93
2022/09/09 07:49:50;;;;;;;;;;;18.30;99.90;;;;;;5043841;28;20041;-86
2022/09/09 07:52:16;;;;;;;11.40;4.65;;;18.40;99.90;;;;;;5022912;28;20307;-88
2022/09/09 07:54:42;;;;;;;13.57;5.40;;;18.50;99.90;;;;;;5022152;28;20033;-92
2022/09/09 07:57:08;;;;;;;8.68;4.07;;;18.60;99.90;;;;;;5038822;28;20033;-91
2022/09/09 07:59:34;;;;;;;7.05;3.47;;;18.70;99.90;;;;;;5043615;28;20045;-93
2022/09/09 08:02:00;;;;;;;4.28;2.65;;;18.80;99.90;;;;;;5041636;28;20036;-90
2022/09/09 08:04:27;;;;;;;4.78;2.80;;;19.00;99.90;;;;;;5018782;28;20056;-88
2022/09/09 08:06:56;;;;;;;5.72;2.67;;;18.90;99.90;;;;;;5035560;28;20045;-89
2022/09/09 08:09:26;;;;;;;7.57;2.83;;;18.90;99.90;;;;;;5018880;28;20412;-85
2022/09/09 08:11:53;;;;;;;72.38;54.47;;;19.00;99.90;;;;;;5037994;28;20048;-89
2022/09/09 08:14:19;;;;;;;516.38;411.42;;;19.00;99.90;;;;;;5028575;28;20021;-87
2022/09/09 08:16:49;;;;;;;15.45;10.07;;;19.20;99.90;;;;;;5036503;28;20021;-88
2022/09/09 08:19:15;;;;;;;6.80;4.13;;;19.30;99.90;;;;;;5021054;28;20032;-90
2022/09/09 08:21:42;;;;;;;5.78;3.10;;;19.30;99.90;;;;;;5031839;28;20021;-89
2022/09/09 08:24:14;;;;;;;5.40;2.58;;;19.30;99.90;;;;;;5032838;28;20100;-87
2022/09/09 08:27:04;;;;;;;5.07;2.70;;;19.50;99.90;;;;;;5032517;28;20029;-91
2022/09/09 08:32:38;;;;;;;5.07;2.80;;;19.90;99.90;;;;;;5025578;28;20033;-92
2022/09/09 08:35:04;;;;;;;4.10;2.60;;;19.90;99.90;;;;;;5036921;28;20096;-91
2022/09/09 08:37:30;;;;;;;4.90;2.47;;;19.90;99.90;;;;;;5040367;28;20129;-90
2022/09/09 08:39:58;;;;;;;8.30;2.97;;;20.00;99.90;;;;;;5042282;28;20037;-87
2022/09/09 08:42:52;;;;;;;7.25;2.95;;;20.10;99.90;;;;;;5043238;28;20420;-91
2022/09/09 08:45:37;;;;;;;6.00;2.35;;;20.10;99.90;;;;;;5020551;28;20030;-90
2022/09/09 08:48:29;;;;;;;16.15;3.50;;;20.50;99.90;;;;;;5035226;28;20033;-90
2022/09/09 08:51:01;;;;;;;3.92;2.40;;;20.40;99.90;;;;;;5035999;28;20032;-90
2022/09/09 08:53:36;;;;;;;4.25;2.63;;;20.40;99.90;;;;;;5017939;28;20108;-89
2022/09/09 08:56:08;;;;;;;5.70;2.60;;;20.40;99.90;;;;;;5033903;28;20050;-91
2022/09/09 08:58:40;;;;;;;4.20;2.60;;;20.60;99.90;;;;;;5042494;28;20048;-91
2022/09/09 09:01:10;;;;;;;4.40;2.75;;;20.80;99.90;;;;;;5037744;28;20022;-95
2022/09/09 09:04:25;;;;;;;;;;;;;;;;;;;;;
2022/09/09 09:07:16;;;;;;;7.65;3.00;;;20.90;99.90;;;;;;4997110;28;20459;-91
2022/09/09 09:09:59;;;;;;;4.13;2.30;;;20.80;99.90;;;;;;5031792;28;20100;-89
2022/09/09 09:12:29;;;;;;;6.10;2.30;;;21.10;99.90;;;;;;5031924;28;20030;-90
2022/09/09 09:14:57;;;;;;;8.60;2.70;;;21.20;99.90;;;;;;5031982;28;20053;-91
2022/09/09 09:17:27;;;;;;;3.97;2.47;;;21.10;99.90;;;;;;5015891;28;20038;-92
2022/09/09 09:19:53;;;;;;;5.70;2.47;;;21.20;99.90;;;;;;5032743;28;20026;-90
2022/09/09 09:22:44;;;;;;;6.68;2.85;;;21.10;99.90;;;;;;5033707;28;20026;-86
2022/09/09 09:25:30;;;;;;;4.90;2.10;;;21.10;99.90;;;;;;5023455;28;20018;-88
2022/09/09 09:28:05;;;;;;;8.02;3.20;;;21.60;99.90;;;;;;5039713;28;20029;-89
2022/09/09 09:30:57;;;;;;;3.63;2.40;;;21.80;99.90;;;;;;5041061;28;20104;-87
2022/09/09 09:33:29;;;;;;;7.78;2.35;;;22.10;99.90;;;;;;5055002;28;20049;-88
2022/09/09 09:35:59;;;;;;;4.78;2.03;;;22.20;99.90;;;;;;5046083;28;20029;-87
2022/09/09 09:38:29;;;;;;;4.22;2.28;;;22.10;99.90;;;;;;5048132;28;20094;-89
2022/09/09 09:41:00;;;;;;;9.35;2.33;;;22.10;99.90;;;;;;5018769;28;20038;-88
2022/09/09 09:43:29;;;;;;;5.07;1.92;;;21.70;99.90;;;;;;5009523;28;20100;-88
2022/09/09 09:45:57;;;;;;;3.53;2.33;;;21.80;99.90;;;;;;5005139;28;20036;-89
2022/09/09 09:48:24;;;;;;;3.63;2.08;;;21.90;99.90;;;;;;5004587;28;20124;-88
2022/09/09 09:51:12;;;;;;;5.50;2.70;;;21.80;99.90;;;;;;5000751;28;20033;-87
2022/09/09 09:53:39;;;;;;;4.90;2.30;;;21.60;99.90;;;;;;4997321;28;20026;-85
2022/09/09 09:56:15;;;;;;;4.68;2.72;;;21.60;99.90;;;;;;5001648;28;20107;-84
2022/09/09 09:58:50;;;;;;;8.45;3.10;;;21.30;99.90;;;;;;5033787;28;20523;-84
2022/09/09 10:01:33;;;;;;;3.20;2.13;;;21.30;99.90;;;;;;5034138;28;20026;-85
2022/09/09 10:04:23;;;;;;;6.30;2.70;;;21.40;99.90;;;;;;5032099;28;20480;-84
2022/09/09 10:06:49;;;;;;;3.58;2.00;;;21.70;99.90;;;;;;5015872;28;20095;-87
2022/09/09 10:09:27;;;;;;;4.13;2.20;;;21.90;99.90;;;;;;5034397;28;20116;-85
2022/09/09 10:11:53;;;;;;;;;;;22.10;99.90;;;;;;5025026;28;20029;-86
2022/09/09 10:14:38;;;;;;;4.82;2.42;;;22.30;99.90;;;;;;5036922;28;19913;-87
2022/09/09 10:17:19;;;;;;;4.40;2.65;;;22.40;99.90;;;;;;5017391;28;20053;-85
2022/09/09 10:20:20;;;;;;;4.15;2.15;;;22.40;99.90;;;;;;5035097;28;20547;-85
2022/09/09 10:23:16;;;;;;;9.45;3.72;;;22.30;99.90;;;;;;5038489;28;20037;-85
2022/09/09 10:26:06;;;;;;;3.88;2.08;;;22.20;99.90;;;;;;5034943;28;20068;-85
2022/09/09 10:28:54;;;;;;;5.70;2.40;;;22.10;99.90;;;;;;5016533;28;20024;-87
2022/09/09 10:31:30;;;;;;;3.92;1.83;;;22.30;99.90;;;;;;5034928;28;20481;-87
2022/09/09 10:34:20;;;;;;;3.47;2.00;;;22.10;99.90;;;;;;5037461;28;20029;-84
2022/09/09 10:36:50;;;;;;;4.07;1.75;;;22.30;99.90;;;;;;5036965;28;20029;-86
2022/09/09 10:39:41;;;;;;;5.63;2.00;;;22.50;99.90;;;;;;5032987;28;20467;-86
2022/09/09 10:42:13;;;;;;;3.75;1.77;;;22.40;99.90;;;;;;5032717;28;20026;-86
2022/09/09 10:44:54;;;;;;;2.55;1.85;;;22.00;99.90;;;;;;5017840;28;20128;-86
2022/09/09 10:47:23;;;;;;;3.35;2.03;;;23.00;99.90;;;;;;5021892;28;20033;-86
2022/09/09 10:50:05;;;;;;;2.28;1.33;;;23.30;99.90;;;;;;5017741;28;20112;-91
2022/09/09 10:52:51;;;;;;;1.52;0.80;;;22.70;99.90;;;;;;5024051;28;20035;-86
2022/09/09 10:55:19;;;;;;;3.85;1.63;;;22.50;99.90;;;;;;5034171;28;20494;-87
2022/09/09 10:57:57;;;;;;;3.42;1.40;;;22.50;99.90;;;;;;5032782;28;20436;-87
2022/09/09 11:00:45;;;;;;;3.05;1.52;;;23.10;99.90;;;;;;5025914;28;20037;-86
2022/09/09 11:03:26;;;;;;;3.83;1.52;;;23.40;99.90;;;;;;5023971;28;20044;-88
2022/09/09 11:06:02;;;;;;;2.78;1.33;;;23.30;99.90;;;;;;5029272;28;20619;-87
2022/09/09 11:08:31;;;;;;;4.18;1.65;;;24.00;99.90;;;;;;5034707;28;20029;-88
2022/09/09 11:11:04;;;;;;;2.60;0.73;;;23.30;99.90;;;;;;5021463;28;20412;-87
2022/09/09 11:13:37;;;;;;;1.52;0.60;;;23.20;99.90;;;;;;5013488;28;20036;-88
2022/09/09 11:16:25;;;;;;;2.08;1.10;;;23.40;99.00;;;;;;5014179;28;20022;-88
2022/09/09 11:19:05;;;;;;;21.63;14.55;;;23.30;97.90;;;;;;5034401;28;20080;-87
2022/09/09 11:21:49;;;;;;;67.57;60.20;;;23.30;99.90;;;;;;5020468;28;20041;-84
2022/09/09 11:24:55;;;;;;;5.13;1.95;;;23.10;99.00;;;;;;5032168;28;20033;-85
2022/09/09 11:27:30;;;;;;;3.70;1.35;;;23.70;99.60;;;;;;4968541;28;20114;-85
2022/09/09 11:30:18;;;;;;;2.58;0.93;;;23.70;99.00;;;;;;5008924;28;20127;-83
2022/09/09 11:33:17;;;;;;;4.13;0.98;;;23.50;98.40;;;;;;5029835;28;20029;-83
2022/09/09 11:36:12;;;;;;;1.85;1.02;;;23.70;99.00;;;;;;5032056;28;20069;-85
2022/09/09 11:38:50;;;;;;;3.05;1.10;;;23.90;98.00;;;;;;5044452;28;20061;-85
2022/09/09 11:41:17;;;;;;;3.10;1.20;;;24.20;99.90;;;;;;5036072;28;20113;-87
2022/09/09 11:43:44;;;;;;;;;;;24.30;99.40;;;;;;5034375;28;20055;-85
2022/09/09 11:46:12;;;;;;;4.15;0.98;;;24.70;98.80;;;;;;5024696;28;19928;-87
2022/09/09 11:48:44;;;;;;;2.83;1.05;;;25.20;96.30;;;;;;5034020;28;20022;-87
2022/09/09 11:51:31;;;;;;;2.08;0.80;;;24.80;89.40;;;;;;5018680;28;20059;-87
2022/09/09 11:54:21;;;;;;;1.55;0.90;;;24.70;91.40;;;;;;5033249;28;20061;-85
2022/09/09 11:56:47;;;;;;;1.30;0.90;;;24.80;90.90;;;;;;5035468;28;20022;-87
2022/09/09 11:59:32;;;;;;;3.17;1.25;;;24.50;91.70;;;;;;5043786;28;20029;-88
2022/09/09 12:02:04;;;;;;;3.03;1.35;;;24.10;92.30;;;;;;5036712;28;20074;-87
2022/09/09 12:04:37;;;;;;;2.70;1.08;;;23.80;92.30;;;;;;5021523;28;20025;-84
2022/09/09 12:07:30;;;;;;;2.53;1.00;;;24.10;92.90;;;;;;5036823;28;20025;-87
2022/09/09 12:10:00;;;;;;;3.40;1.35;;;24.40;92.10;;;;;;5039844;28;20037;-88
2022/09/09 12:12:35;;;;;;;2.97;1.20;;;24.20;89.50;;;;;;5035791;28;20021;-84
2022/09/09 12:15:07;;;;;;;2.72;0.95;;;24.10;90.60;;;;;;5036609;28;20041;-88
2022/09/09 12:17:43;;;;;;;2.40;1.10;;;24.20;92.30;;;;;;5033627;28;20072;-85
2022/09/09 12:20:36;;;;;;;4.38;1.35;;;24.40;90.40;;;;;;5019644;28;20052;-87
2022/09/09 12:23:30;;;;;;;2.97;0.85;;;24.70;91.60;;;;;;5030888;28;20039;-89
2022/09/09 12:26:30;;;;;;;3.88;1.48;;;24.30;88.50;;;;;;5031772;28;20167;-84
2022/09/09 12:29:23;;;;;;;3.88;1.17;;;24.40;90.20;;;;;;5031366;28;20366;-86
2022/09/09 12:32:31;;;;;;;2.25;0.90;;;24.60;90.50;;;;;;5031108;28;20037;-86
2022/09/09 12:35:10;;;;;;;3.38;1.40;;;24.40;89.80;;;;;;4971540;28;20099;-87
2022/09/09 12:37:57;;;;;;;2.08;0.90;;;24.60;90.90;;;;;;5021231;28;20048;-86
2022/09/09 12:40:37;;;;;;;2.55;1.35;;;24.50;88.80;;;;;;5055076;28;21338;-86
2022/09/09 12:43:21;;;;;;;2.67;1.45;;;24.50;90.50;;;;;;5054041;28;20113;-86
2022/09/09 12:45:56;;;;;;;5.10;1.52;;;24.40;88.20;;;;;;5055018;28;20049;-86
2022/09/09 12:48:36;;;;;;;3.42;1.00;;;24.20;88.70;;;;;;5036141;28;20040;-87
2022/09/09 12:51:05;;;;;;;3.30;0.95;;;24.30;92.00;;;;;;5037894;28;20068;-86
2022/09/09 12:53:36;;;;;;;4.13;0.75;;;24.50;92.70;;;;;;5040230;28;20029;-85
2022/09/09 12:56:09;;;;;;;3.55;1.33;;;24.50;90.10;;;;;;5031931;28;20084;-84
2022/09/09 12:58:40;;;;;;;4.38;0.80;;;24.60;90.90;;;;;;5031208;28;20117;-88
2022/09/09 13:01:18;;;;;;;3.10;1.35;;;24.80;90.20;;;;;;5030370;28;20766;-85
2022/09/09 13:03:45;;;;;;;1.55;0.90;;;24.70;86.00;;;;;;5035386;28;20438;-86
2022/09/09 13:06:18;;;;;;;1.65;0.63;;;24.70;90.90;;;;;;5034520;28;20048;-86
2022/09/09 13:08:44;;;;;;;3.33;1.13;;;24.80;85.10;;;;;;5038346;28;20037;-87
2022/09/09 13:11:16;;;;;;;1.02;0.47;;;25.00;88.90;;;;;;5023597;28;20027;-86
2022/09/09 13:13:43;;;;;;;3.47;0.90;;;24.90;87.20;;;;;;5034579;28;20492;-87
2022/09/09 13:16:24;;;;;;;;;;;25.00;85.60;;;;;;5033319;28;20029;-87
2022/09/09 13:18:50;;;;;;;1.42;0.60;;;25.00;86.40;;;;;;5018003;28;19921;-87